sensor_id;sensor_type;location;lat;lon;timestamp;pressure;altitude;pressure_sealevel;temperature;humidity
58973;BME280;44750;52.040;7.472;2023-01-15T00:04:52;98207.47;;;7.81;89.02
58973;BME280;44750;52.040;7.472;2023-01-15T00:09:52;98160.44;;;7.77;92.92
58973;BME280;44750;52.040;7.472;2023-01-15T00:14:52;98180.97;;;7.85;96.65
58973;BME280;44750;52.040;7.472;2023-01-15T00:19:52;98168.94;;;7.81;99.89
58973;BME280;44750;52.040;7.472;2023-01-15T00:24:53;98156.31;;;7.81;100.00
58973;BME280;44750;52.040;7.472;2023-01-15T00:29:53;98155.13;;;7.91;100.00
58973;BME280;44750;52.040;7.472;2023-01-15T00:34:53;98139.09;;;7.76;100.00
58973;BME280;44750;52.040;7.472;2023-01-15T00:39:54;98155.28;;;7.82;100.00
58973;BME280;44750;52.040;7.472;2023-01-15T00:44:54;98178.06;;;7.80;100.00
58973;BME280;44750;52.040;7.472;2023-01-15T00:49:55;98212.03;;;7.81;100.00
58973;BME280;44750;52.040;7.472;2023-01-15T00:54:56;98226.97;;;7.83;100.00
58973;BME280;44750;52.040;7.472;2023-01-15T00:59:56;98246.06;;;7.89;99.84
58973;BME280;44750;52.040;7.472;2023-01-15T01:04:56;98253.88;;;7.83;98.27
58973;BME280;44750;52.040;7.472;2023-01-15T01:09:56;98253.53;;;7.65;97.55
58973;BME280;44750;52.040;7.472;2023-01-15T01:14:57;98266.38;;;7.63;95.69
58973;BME280;44750;52.040;7.472;2023-01-15T01:19:57;98255.38;;;7.36;95.61
58973;BME280;44750;52.040;7.472;2023-01-15T01:24:57;98265.50;;;7.34;95.29
58973;BME280;44750;52.040;7.472;2023-01-15T01:29:57;98281.56;;;7.27;94.90
58973;BME280;44750;52.040;7.472;2023-01-15T01:34:59;98305.09;;;7.18;93.40
58973;BME280;44750;52.040;7.472;2023-01-15T01:39:59;98318.47;;;7.12;92.36
58973;BME280;44750;52.040;7.472;2023-01-15T01:45:04;98329.78;;;7.07;90.23
58973;BME280;44750;52.040;7.472;2023-01-15T01:50:09;98339.22;;;7.18;87.55
58973;BME280;44750;52.040;7.472;2023-01-15T01:55:13;98329.88;;;7.14;86.95
58973;BME280;44750;52.040;7.472;2023-01-15T02:00:17;98330.06;;;7.12;87.62
58973;BME280;44750;52.040;7.472;2023-01-15T02:05:30;98335.06;;;7.15;88.00
58973;BME280;44750;52.040;7.472;2023-01-15T02:10:30;98316.34;;;7.07;88.89
58973;BME280;44750;52.040;7.472;2023-01-15T02:15:44;98324.28;;;7.15;89.29
58973;BME280;44750;52.040;7.472;2023-01-15T02:20:53;98326.78;;;7.17;89.17
58973;BME280;44750;52.040;7.472;2023-01-15T02:26:13;98315.13;;;7.10;90.10
58973;BME280;44750;52.040;7.472;2023-01-15T02:31:26;98334.22;;;7.15;90.02
58973;BME280;44750;52.040;7.472;2023-01-15T02:36:32;98314.94;;;7.11;91.09
58973;BME280;44750;52.040;7.472;2023-01-15T02:41:37;98300.81;;;7.24;91.83
58973;BME280;44750;52.040;7.472;2023-01-15T02:46:40;98290.09;;;7.09;94.76
58973;BME280;44750;52.040;7.472;2023-01-15T02:51:59;98292.19;;;7.14;95.54
58973;BME280;44750;52.040;7.472;2023-01-15T02:57:02;98282.25;;;7.14;95.95
58973;BME280;44750;52.040;7.472;2023-01-15T03:02:06;98266.25;;;7.06;97.92
58973;BME280;44750;52.040;7.472;2023-01-15T03:17:56;98196.84;;;6.95;100.00
58973;BME280;44750;52.040;7.472;2023-01-15T03:22:59;98207.19;;;6.98;100.00
58973;BME280;44750;52.040;7.472;2023-01-15T03:28:03;98212.13;;;6.94;100.00
58973;BME280;44750;52.040;7.472;2023-01-15T03:33:04;98227.03;;;6.97;100.00
58973;BME280;44750;52.040;7.472;2023-01-15T03:38:04;98210.16;;;7.03;100.00
58973;BME280;44750;52.040;7.472;2023-01-15T03:43:08;98205.53;;;6.97;100.00
58973;BME280;44750;52.040;7.472;2023-01-15T03:48:13;98210.09;;;6.96;100.00
58973;BME280;44750;52.040;7.472;2023-01-15T03:53:21;98200.28;;;6.89;100.00
58973;BME280;44750;52.040;7.472;2023-01-15T03:58:29;98202.56;;;6.92;100.00
58973;BME280;44750;52.040;7.472;2023-01-15T04:03:34;98209.34;;;6.88;100.00
58973;BME280;44750;52.040;7.472;2023-01-15T04:08:38;98196.38;;;6.91;100.00
58973;BME280;44750;52.040;7.472;2023-01-15T04:13:39;98192.22;;;6.89;100.00
58973;BME280;44750;52.040;7.472;2023-01-15T04:18:40;98180.69;;;6.95;100.00
58973;BME280;44750;52.040;7.472;2023-01-15T04:23:40;98181.44;;;6.89;100.00
58973;BME280;44750;52.040;7.472;2023-01-15T04:28:40;98159.81;;;6.75;100.00
58973;BME280;44750;52.040;7.472;2023-01-15T04:33:42;98168.78;;;6.82;100.00
58973;BME280;44750;52.040;7.472;2023-01-15T04:38:42;98165.56;;;6.72;100.00
58973;BME280;44750;52.040;7.472;2023-01-15T04:43:42;98169.34;;;6.78;100.00
58973;BME280;44750;52.040;7.472;2023-01-15T04:48:43;98151.88;;;6.67;100.00
58973;BME280;44750;52.040;7.472;2023-01-15T04:53:43;98174.19;;;6.67;100.00
58973;BME280;44750;52.040;7.472;2023-01-15T04:58:43;98176.69;;;6.69;100.00
58973;BME280;44750;52.040;7.472;2023-01-15T05:03:43;98187.63;;;6.67;100.00
58973;BME280;44750;52.040;7.472;2023-01-15T05:08:44;98184.13;;;6.67;100.00
58973;BME280;44750;52.040;7.472;2023-01-15T05:13:44;98187.44;;;6.69;100.00
58973;BME280;44750;52.040;7.472;2023-01-15T05:18:46;98196.69;;;6.81;100.00
58973;BME280;44750;52.040;7.472;2023-01-15T05:23:48;98190.72;;;6.64;100.00
58973;BME280;44750;52.040;7.472;2023-01-15T05:28:52;98189.97;;;6.71;100.00
58973;BME280;44750;52.040;7.472;2023-01-15T05:33:53;98176.34;;;6.72;100.00
58973;BME280;44750;52.040;7.472;2023-01-15T05:38:54;98200.78;;;6.77;100.00
58973;BME280;44750;52.040;7.472;2023-01-15T05:43:58;98176.59;;;6.77;100.00
58973;BME280;44750;52.040;7.472;2023-01-15T05:49:00;98169.94;;;6.73;100.00
58973;BME280;44750;52.040;7.472;2023-01-15T05:54:01;98174.28;;;6.74;100.00
58973;BME280;44750;52.040;7.472;2023-01-15T05:59:02;98175.06;;;6.68;100.00
58973;BME280;44750;52.040;7.472;2023-01-15T06:04:04;98175.13;;;6.75;100.00
58973;BME280;44750;52.040;7.472;2023-01-15T06:09:04;98164.56;;;6.73;100.00
58973;BME280;44750;52.040;7.472;2023-01-15T06:14:05;98181.78;;;6.79;100.00
58973;BME280;44750;52.040;7.472;2023-01-15T06:19:06;98200.41;;;6.80;100.00
58973;BME280;44750;52.040;7.472;2023-01-15T06:24:07;98185.47;;;6.78;100.00
58973;BME280;44750;52.040;7.472;2023-01-15T06:29:07;98179.56;;;6.82;100.00
58973;BME280;44750;52.040;7.472;2023-01-15T06:34:08;98176.06;;;6.89;100.00
58973;BME280;44750;52.040;7.472;2023-01-15T06:39:08;98149.50;;;6.79;100.00
58973;BME280;44750;52.040;7.472;2023-01-15T06:44:15;98137.91;;;6.78;100.00
58973;BME280;44750;52.040;7.472;2023-01-15T06:49:15;98151.63;;;6.83;100.00
58973;BME280;44750;52.040;7.472;2023-01-15T06:54:16;98174.84;;;6.91;100.00
58973;BME280;44750;52.040;7.472;2023-01-15T06:59:17;98172.31;;;6.83;100.00
58973;BME280;44750;52.040;7.472;2023-01-15T07:04:17;98191.75;;;6.85;100.00
58973;BME280;44750;52.040;7.472;2023-01-15T07:09:18;98190.03;;;6.77;100.00
58973;BME280;44750;52.040;7.472;2023-01-15T07:14:20;98187.09;;;6.72;100.00
58973;BME280;44750;52.040;7.472;2023-01-15T07:19:21;98215.13;;;6.84;100.00
58973;BME280;44750;52.040;7.472;2023-01-15T07:24:21;98183.38;;;6.73;100.00
58973;BME280;44750;52.040;7.472;2023-01-15T07:29:21;98173.38;;;6.67;100.00
58973;BME280;44750;52.040;7.472;2023-01-15T07:34:22;98177.94;;;6.66;100.00
58973;BME280;44750;52.040;7.472;2023-01-15T07:39:22;98174.78;;;6.63;100.00
58973;BME280;44750;52.040;7.472;2023-01-15T07:44:22;98179.56;;;6.67;100.00
58973;BME280;44750;52.040;7.472;2023-01-15T07:49:23;98132.16;;;6.60;100.00
58973;BME280;44750;52.040;7.472;2023-01-15T07:54:24;98155.19;;;6.69;100.00
58973;BME280;44750;52.040;7.472;2023-01-15T07:59:26;98108.72;;;6.53;100.00
58973;BME280;44750;52.040;7.472;2023-01-15T08:04:26;98139.44;;;6.66;100.00
58973;BME280;44750;52.040;7.472;2023-01-15T08:09:27;98133.25;;;6.65;100.00
58973;BME280;44750;52.040;7.472;2023-01-15T08:14:27;98098.94;;;6.46;100.00
58973;BME280;44750;52.040;7.472;2023-01-15T08:19:27;98109.41;;;6.41;100.00
58973;BME280;44750;52.040;7.472;2023-01-15T08:24:28;98114.72;;;6.34;100.00
58973;BME280;44750;52.040;7.472;2023-01-15T08:29:28;98110.31;;;6.11;100.00
58973;BME280;44750;52.040;7.472;2023-01-15T08:34:28;98147.81;;;6.19;100.00
58973;BME280;44750;52.040;7.472;2023-01-15T08:39:30;98170.59;;;6.24;100.00
58973;BME280;44750;52.040;7.472;2023-01-15T08:44:30;98166.81;;;6.18;100.00
58973;BME280;44750;52.040;7.472;2023-01-15T08:49:32;98173.94;;;6.26;100.00
58973;BME280;44750;52.040;7.472;2023-01-15T08:54:33;98177.63;;;6.25;100.00
58973;BME280;44750;52.040;7.472;2023-01-15T08:59:33;98188.03;;;6.28;100.00
58973;BME280;44750;52.040;7.472;2023-01-15T09:04:33;98158.56;;;6.19;100.00
58973;BME280;44750;52.040;7.472;2023-01-15T09:09:33;98167.16;;;6.30;100.00
58973;BME280;44750;52.040;7.472;2023-01-15T09:14:34;98143.78;;;6.45;100.00
58973;BME280;44750;52.040;7.472;2023-01-15T09:19:34;98145.84;;;6.65;100.00
58973;BME280;44750;52.040;7.472;2023-01-15T09:24:34;98113.72;;;6.57;100.00
58973;BME280;44750;52.040;7.472;2023-01-15T09:29:34;98079.38;;;6.52;100.00
58973;BME280;44750;52.040;7.472;2023-01-15T09:34:35;98109.47;;;6.69;100.00
58973;BME280;44750;52.040;7.472;2023-01-15T09:39:36;98079.28;;;6.67;100.00
58973;BME280;44750;52.040;7.472;2023-01-15T09:49:48;98043.28;;;6.90;100.00
58973;BME280;44750;52.040;7.472;2023-01-15T09:55:12;98046.22;;;6.95;100.00
58973;BME280;44750;52.040;7.472;2023-01-15T10:00:18;98053.78;;;7.13;100.00
58973;BME280;44750;52.040;7.472;2023-01-15T10:05:27;98060.88;;;7.20;100.00
58973;BME280;44750;52.040;7.472;2023-01-15T10:10:40;98052.28;;;7.32;100.00
58973;BME280;44750;52.040;7.472;2023-01-15T10:15:45;98030.66;;;7.18;100.00
58973;BME280;44750;52.040;7.472;2023-01-15T10:26:12;98020.72;;;7.19;100.00
58973;BME280;44750;52.040;7.472;2023-01-15T10:31:21;98001.22;;;7.10;100.00
58973;BME280;44750;52.040;7.472;2023-01-15T10:36:28;97988.56;;;7.04;100.00
58973;BME280;44750;52.040;7.472;2023-01-15T10:47:10;98068.41;;;7.32;100.00
58973;BME280;44750;52.040;7.472;2023-01-15T10:52:32;98037.00;;;7.39;100.00
58973;BME280;44750;52.040;7.472;2023-01-15T10:57:51;98006.84;;;7.15;100.00
58973;BME280;44750;52.040;7.472;2023-01-15T11:03:05;98046.41;;;7.22;100.00
58973;BME280;44750;52.040;7.472;2023-01-15T11:08:13;98007.75;;;7.29;100.00
58973;BME280;44750;52.040;7.472;2023-01-15T11:13:21;98008.81;;;7.35;100.00
58973;BME280;44750;52.040;7.472;2023-01-15T11:18:26;98029.56;;;7.41;100.00
58973;BME280;44750;52.040;7.472;2023-01-15T11:23:27;97997.41;;;7.33;100.00
58973;BME280;44750;52.040;7.472;2023-01-15T11:28:38;98040.69;;;7.38;100.00
58973;BME280;44750;52.040;7.472;2023-01-15T11:33:43;98015.19;;;7.27;100.00
58973;BME280;44750;52.040;7.472;2023-01-15T11:38:46;98081.38;;;7.57;100.00
58973;BME280;44750;52.040;7.472;2023-01-15T11:43:54;98019.03;;;7.53;100.00
58973;BME280;44750;52.040;7.472;2023-01-15T11:48:56;97989.78;;;7.36;100.00
58973;BME280;44750;52.040;7.472;2023-01-15T11:54:02;97985.25;;;7.37;100.00
58973;BME280;44750;52.040;7.472;2023-01-15T11:59:09;98010.94;;;7.46;100.00
58973;BME280;44750;52.040;7.472;2023-01-15T12:04:38;97961.66;;;7.46;100.00
58973;BME280;44750;52.040;7.472;2023-01-15T12:09:58;97981.16;;;7.48;100.00
58973;BME280;44750;52.040;7.472;2023-01-15T12:15:32;97953.03;;;7.57;100.00
58973;BME280;44750;52.040;7.472;2023-01-15T12:31:21;97921.06;;;7.47;100.00
58973;BME280;44750;52.040;7.472;2023-01-15T12:41:48;97996.00;;;7.37;100.00
58973;BME280;44750;52.040;7.472;2023-01-15T12:46:51;98052.72;;;7.42;100.00
58973;BME280;44750;52.040;7.472;2023-01-15T12:52:01;98030.38;;;7.42;100.00
58973;BME280;44750;52.040;7.472;2023-01-15T12:57:14;98005.72;;;7.38;100.00
58973;BME280;44750;52.040;7.472;2023-01-15T13:07:41;98003.69;;;7.47;100.00
58973;BME280;44750;52.040;7.472;2023-01-15T13:12:42;98027.94;;;7.47;100.00
58973;BME280;44750;52.040;7.472;2023-01-15T13:23:15;97947.91;;;7.27;100.00
58973;BME280;44750;52.040;7.472;2023-01-15T13:28:33;97975.25;;;7.31;100.00
58973;BME280;44750;52.040;7.472;2023-01-15T13:33:41;97980.88;;;7.36;100.00
58973;BME280;44750;52.040;7.472;2023-01-15T13:38:47;97966.75;;;7.27;100.00
58973;BME280;44750;52.040;7.472;2023-01-15T13:43:48;97946.88;;;7.28;100.00
58973;BME280;44750;52.040;7.472;2023-01-15T13:48:50;97992.25;;;7.38;100.00
58973;BME280;44750;52.040;7.472;2023-01-15T13:53:51;97957.03;;;7.33;100.00
58973;BME280;44750;52.040;7.472;2023-01-15T13:59:01;97919.97;;;7.28;100.00
58973;BME280;44750;52.040;7.472;2023-01-15T14:09:02;98152.78;;;6.96;100.00
58973;BME280;44750;52.040;7.472;2023-01-15T14:25:01;98402.69;;;6.52;100.00
58973;BME280;44750;52.040;7.472;2023-01-15T14:35:34;98416.06;;;6.61;100.00
58973;BME280;44750;52.040;7.472;2023-01-15T14:40:35;98427.38;;;6.71;100.00
58973;BME280;44750;52.040;7.472;2023-01-15T14:45:39;98381.41;;;6.66;100.00
58973;BME280;44750;52.040;7.472;2023-01-15T14:50:41;98408.47;;;6.79;100.00
58973;BME280;44750;52.040;7.472;2023-01-15T14:56:05;98352.19;;;6.63;100.00
58973;BME280;44750;52.040;7.472;2023-01-15T15:01:17;98393.34;;;6.63;100.00
58973;BME280;44750;52.040;7.472;2023-01-15T15:06:21;98458.97;;;6.54;100.00
58973;BME280;44750;52.040;7.472;2023-01-15T15:11:34;98497.06;;;6.58;100.00
58973;BME280;44750;52.040;7.472;2023-01-15T15:16:41;98499.47;;;6.52;100.00
58973;BME280;44750;52.040;7.472;2023-01-15T15:21:45;98488.00;;;6.59;100.00
58973;BME280;44750;52.040;7.472;2023-01-15T15:26:50;98457.66;;;6.50;100.00
58973;BME280;44750;52.040;7.472;2023-01-15T15:31:51;98474.56;;;6.59;100.00
58973;BME280;44750;52.040;7.472;2023-01-15T15:36:51;98483.34;;;6.52;100.00
58973;BME280;44750;52.040;7.472;2023-01-15T15:41:54;98476.00;;;6.46;100.00
58973;BME280;44750;52.040;7.472;2023-01-15T15:46:56;98528.50;;;6.34;100.00
58973;BME280;44750;52.040;7.472;2023-01-15T15:51:56;98557.09;;;5.95;100.00
58973;BME280;44750;52.040;7.472;2023-01-15T15:57:07;98594.56;;;5.89;100.00
58973;BME280;44750;52.040;7.472;2023-01-15T16:07:35;98639.56;;;5.86;100.00
58973;BME280;44750;52.040;7.472;2023-01-15T16:12:50;98644.31;;;5.68;100.00
58973;BME280;44750;52.040;7.472;2023-01-15T16:17:51;98638.28;;;5.66;100.00
58973;BME280;44750;52.040;7.472;2023-01-15T16:22:56;98664.13;;;5.67;100.00
58973;BME280;44750;52.040;7.472;2023-01-15T16:27:58;98670.63;;;5.73;99.50
58973;BME280;44750;52.040;7.472;2023-01-15T16:33:04;98663.72;;;5.78;97.33
58973;BME280;44750;52.040;7.472;2023-01-15T16:38:05;98665.38;;;5.88;97.37
58973;BME280;44750;52.040;7.472;2023-01-15T16:48:25;98649.38;;;6.11;100.00
58973;BME280;44750;52.040;7.472;2023-01-15T16:58:39;98561.69;;;6.18;100.00
58973;BME280;44750;52.040;7.472;2023-01-15T17:03:40;98543.75;;;6.18;100.00
58973;BME280;44750;52.040;7.472;2023-01-15T17:08:45;98517.63;;;6.27;100.00
58973;BME280;44750;52.040;7.472;2023-01-15T17:13:48;98520.25;;;6.35;100.00
58973;BME280;44750;52.040;7.472;2023-01-15T17:18:50;98506.41;;;6.47;100.00
58973;BME280;44750;52.040;7.472;2023-01-15T17:23:50;98469.59;;;6.47;100.00
58973;BME280;44750;52.040;7.472;2023-01-15T17:28:50;98471.66;;;6.45;100.00
58973;BME280;44750;52.040;7.472;2023-01-15T17:33:51;98468.69;;;6.40;100.00
58973;BME280;44750;52.040;7.472;2023-01-15T17:38:51;98458.94;;;6.39;100.00
58973;BME280;44750;52.040;7.472;2023-01-15T17:43:52;98465.31;;;6.38;100.00
58973;BME280;44750;52.040;7.472;2023-01-15T17:48:52;98466.28;;;6.45;100.00
58973;BME280;44750;52.040;7.472;2023-01-15T17:53:52;98476.06;;;6.38;100.00
58973;BME280;44750;52.040;7.472;2023-01-15T17:58:52;98501.75;;;6.41;100.00
58973;BME280;44750;52.040;7.472;2023-01-15T18:03:53;98512.00;;;6.37;100.00
58973;BME280;44750;52.040;7.472;2023-01-15T18:08:56;98497.44;;;6.31;100.00
58973;BME280;44750;52.040;7.472;2023-01-15T18:13:58;98485.09;;;6.22;100.00
58973;BME280;44750;52.040;7.472;2023-01-15T18:18:58;98486.66;;;6.16;100.00
58973;BME280;44750;52.040;7.472;2023-01-15T18:23:58;98495.84;;;6.22;100.00
58973;BME280;44750;52.040;7.472;2023-01-15T18:28:58;98495.66;;;6.24;100.00
58973;BME280;44750;52.040;7.472;2023-01-15T18:33:58;98482.28;;;6.15;100.00
58973;BME280;44750;52.040;7.472;2023-01-15T18:38:59;98481.34;;;6.08;100.00
58973;BME280;44750;52.040;7.472;2023-01-15T18:44:10;98508.44;;;6.22;100.00
58973;BME280;44750;52.040;7.472;2023-01-15T18:49:10;98527.19;;;6.30;100.00
58973;BME280;44750;52.040;7.472;2023-01-15T18:54:10;98530.88;;;6.29;100.00
58973;BME280;44750;52.040;7.472;2023-01-15T18:59:12;98526.19;;;6.31;100.00
58973;BME280;44750;52.040;7.472;2023-01-15T19:04:12;98502.72;;;6.25;100.00
58973;BME280;44750;52.040;7.472;2023-01-15T19:09:13;98504.75;;;6.23;100.00
58973;BME280;44750;52.040;7.472;2023-01-15T19:14:13;98489.94;;;6.27;100.00
58973;BME280;44750;52.040;7.472;2023-01-15T19:19:17;98496.34;;;6.26;100.00
58973;BME280;44750;52.040;7.472;2023-01-15T19:24:17;98511.75;;;6.32;100.00
58973;BME280;44750;52.040;7.472;2023-01-15T19:29:17;98510.38;;;6.36;100.00
58973;BME280;44750;52.040;7.472;2023-01-15T19:34:17;98490.28;;;6.24;100.00
58973;BME280;44750;52.040;7.472;2023-01-15T19:39:18;98506.19;;;6.33;100.00
58973;BME280;44750;52.040;7.472;2023-01-15T19:44:18;98470.97;;;6.28;100.00
58973;BME280;44750;52.040;7.472;2023-01-15T19:49:21;98464.28;;;6.24;100.00
58973;BME280;44750;52.040;7.472;2023-01-15T19:54:21;98463.16;;;6.18;100.00
58973;BME280;44750;52.040;7.472;2023-01-15T19:59:22;98455.44;;;6.15;100.00
58973;BME280;44750;52.040;7.472;2023-01-15T20:04:22;98450.13;;;6.07;100.00
58973;BME280;44750;52.040;7.472;2023-01-15T20:09:22;98451.81;;;6.08;100.00
58973;BME280;44750;52.040;7.472;2023-01-15T20:14:22;98454.50;;;6.08;100.00
58973;BME280;44750;52.040;7.472;2023-01-15T20:19:23;98465.88;;;6.10;100.00
58973;BME280;44750;52.040;7.472;2023-01-15T20:24:23;98432.41;;;5.98;100.00
58973;BME280;44750;52.040;7.472;2023-01-15T20:29:23;98454.88;;;6.05;100.00
58973;BME280;44750;52.040;7.472;2023-01-15T20:34:24;98468.22;;;6.13;100.00
58973;BME280;44750;52.040;7.472;2023-01-15T20:39:24;98468.56;;;6.10;100.00
58973;BME280;44750;52.040;7.472;2023-01-15T20:44:24;98477.66;;;6.09;100.00
58973;BME280;44750;52.040;7.472;2023-01-15T20:49:24;98468.88;;;6.15;100.00
58973;BME280;44750;52.040;7.472;2023-01-15T20:54:25;98471.56;;;6.15;100.00
58973;BME280;44750;52.040;7.472;2023-01-15T20:59:25;98475.63;;;6.11;100.00
58973;BME280;44750;52.040;7.472;2023-01-15T21:04:27;98475.25;;;6.14;100.00
58973;BME280;44750;52.040;7.472;2023-01-15T21:09:27;98473.03;;;6.18;100.00
58973;BME280;44750;52.040;7.472;2023-01-15T21:14:27;98468.22;;;6.13;100.00
58973;BME280;44750;52.040;7.472;2023-01-15T21:19:28;98479.28;;;6.18;100.00
58973;BME280;44750;52.040;7.472;2023-01-15T21:24:28;98475.22;;;6.23;100.00
58973;BME280;44750;52.040;7.472;2023-01-15T21:29:28;98473.34;;;6.23;100.00
58973;BME280;44750;52.040;7.472;2023-01-15T21:34:29;98473.47;;;6.30;100.00
58973;BME280;44750;52.040;7.472;2023-01-15T21:39:29;98448.50;;;6.21;100.00
58973;BME280;44750;52.040;7.472;2023-01-15T21:44:29;98438.88;;;6.12;100.00
58973;BME280;44750;52.040;7.472;2023-01-15T21:49:30;98450.06;;;6.15;100.00
58973;BME280;44750;52.040;7.472;2023-01-15T21:54:30;98433.94;;;6.15;100.00
58973;BME280;44750;52.040;7.472;2023-01-15T21:59:30;98455.22;;;6.25;100.00
58973;BME280;44750;52.040;7.472;2023-01-15T22:04:33;98416.81;;;6.16;100.00
58973;BME280;44750;52.040;7.472;2023-01-15T22:09:34;98439.72;;;6.27;100.00
58973;BME280;44750;52.040;7.472;2023-01-15T22:14:34;98432.84;;;6.25;100.00
58973;BME280;44750;52.040;7.472;2023-01-15T22:19:35;98421.94;;;6.26;100.00
58973;BME280;44750;52.040;7.472;2023-01-15T22:24:37;98415.72;;;6.26;100.00
58973;BME280;44750;52.040;7.472;2023-01-15T22:29:39;98403.13;;;6.26;100.00
58973;BME280;44750;52.040;7.472;2023-01-15T22:34:39;98363.81;;;6.10;100.00
58973;BME280;44750;52.040;7.472;2023-01-15T22:39:39;98380.22;;;6.15;100.00
58973;BME280;44750;52.040;7.472;2023-01-15T22:44:40;98391.94;;;6.23;100.00
58973;BME280;44750;52.040;7.472;2023-01-15T22:49:41;98400.81;;;6.23;100.00
58973;BME280;44750;52.040;7.472;2023-01-15T22:54:41;98364.09;;;6.15;100.00
58973;BME280;44750;52.040;7.472;2023-01-15T22:59:41;98382.09;;;6.30;100.00
58973;BME280;44750;52.040;7.472;2023-01-15T23:04:41;98351.06;;;6.27;100.00
58973;BME280;44750;52.040;7.472;2023-01-15T23:09:42;98356.91;;;6.31;100.00
58973;BME280;44750;52.040;7.472;2023-01-15T23:14:42;98364.88;;;6.39;100.00
58973;BME280;44750;52.040;7.472;2023-01-15T23:19:42;98328.84;;;6.33;100.00
58973;BME280;44750;52.040;7.472;2023-01-15T23:24:42;98320.03;;;6.25;100.00
58973;BME280;44750;52.040;7.472;2023-01-15T23:29:42;98331.06;;;6.30;100.00
58973;BME280;44750;52.040;7.472;2023-01-15T23:34:43;98318.63;;;6.29;100.00
58973;BME280;44750;52.040;7.472;2023-01-15T23:39:43;98292.06;;;6.19;100.00
58973;BME280;44750;52.040;7.472;2023-01-15T23:44:43;98283.69;;;5.99;100.00
58973;BME280;44750;52.040;7.472;2023-01-15T23:49:43;98301.25;;;5.86;100.00
58973;BME280;44750;52.040;7.472;2023-01-15T23:54:43;98316.50;;;5.86;100.00
58973;BME280;44750;52.040;7.472;2023-01-15T23:59:44;98316.28;;;5.73;100.00
